createdAt,value
2023-05-05T00:01:54.521Z,14.60
2023-05-05T00:04:24.213Z,14.70
2023-05-05T00:06:51.181Z,14.60
2023-05-05T00:09:18.206Z,14.60
2023-05-05T00:11:45.129Z,14.70
2023-05-05T00:14:12.049Z,14.70
2023-05-05T00:16:38.954Z,14.80
2023-05-05T00:19:06.845Z,14.70
2023-05-05T00:21:34.769Z,14.70
2023-05-05T00:24:02.746Z,14.70
2023-05-05T00:26:29.895Z,14.70
2023-05-05T00:28:57.028Z,14.60
2023-05-05T00:31:23.904Z,14.60
2023-05-05T00:33:50.755Z,14.60
2023-05-05T00:36:17.844Z,14.60
2023-05-05T00:38:44.725Z,14.60
2023-05-05T00:41:11.646Z,14.60
2023-05-05T00:43:39.543Z,14.50
2023-05-05T00:46:26.080Z,14.50
2023-05-05T00:48:53.269Z,14.50
2023-05-05T00:51:20.641Z,14.40
2023-05-05T00:53:48.278Z,14.40
2023-05-05T00:56:16.878Z,14.40
2023-05-05T00:58:43.871Z,14.30
2023-05-05T01:01:11.893Z,14.30
2023-05-05T01:03:39.915Z,14.30
2023-05-05T01:06:08.203Z,14.30
2023-05-05T01:08:44.230Z,14.30
2023-05-05T01:11:26.807Z,14.20
2023-05-05T01:14:13.714Z,14.20
2023-05-05T01:16:43.143Z,14.10
2023-05-05T01:19:13.096Z,14.10
2023-05-05T01:21:46.921Z,14.10
2023-05-05T01:24:28.253Z,14.00
2023-05-05T01:27:29.200Z,14.00
2023-05-05T01:30:08.958Z,13.90
2023-05-05T01:32:41.319Z,13.90
2023-05-05T01:35:15.472Z,13.90
2023-05-05T01:37:57.434Z,13.90
2023-05-05T01:40:26.951Z,13.80
2023-05-05T01:42:55.781Z,13.70
2023-05-05T01:45:24.945Z,13.60
2023-05-05T01:47:52.166Z,13.70
2023-05-05T01:50:19.053Z,13.70
2023-05-05T01:52:46.115Z,13.60
2023-05-05T01:55:13.038Z,13.70
2023-05-05T01:57:39.899Z,13.60
2023-05-05T02:00:07.841Z,13.70
2023-05-05T02:02:36.199Z,13.70
2023-05-05T02:05:03.418Z,13.80
2023-05-05T02:07:30.373Z,13.80
2023-05-05T02:09:57.280Z,13.80
2023-05-05T02:12:24.158Z,13.90
2023-05-05T02:14:52.038Z,13.90
2023-05-05T02:17:18.902Z,13.90
2023-05-05T02:19:46.795Z,13.90
2023-05-05T02:22:16.543Z,13.90
2023-05-05T02:24:43.826Z,13.90
2023-05-05T02:27:10.858Z,13.90
2023-05-05T02:29:49.140Z,13.90
2023-05-05T02:32:22.477Z,13.90
2023-05-05T02:34:49.675Z,13.80
2023-05-05T02:37:19.968Z,13.80
2023-05-05T02:39:51.765Z,13.80
2023-05-05T02:42:19.722Z,13.70
2023-05-05T02:44:46.731Z,13.80
2023-05-05T02:47:13.746Z,13.70
2023-05-05T02:49:40.596Z,13.70
2023-05-05T02:52:13.316Z,13.70
2023-05-05T02:54:40.382Z,13.60
2023-05-05T02:57:07.422Z,13.60
2023-05-05T02:59:47.521Z,13.60
2023-05-05T03:02:41.810Z,13.60
2023-05-05T03:05:17.423Z,13.50
2023-05-05T03:07:50.123Z,13.50
2023-05-05T03:10:18.653Z,13.50
2023-05-05T03:12:56.747Z,13.40
2023-05-05T03:15:37.857Z,13.40
2023-05-05T03:18:04.734Z,13.40
2023-05-05T03:20:32.584Z,13.30
2023-05-05T03:23:01.595Z,13.30
2023-05-05T03:25:48.661Z,13.30
2023-05-05T03:28:16.018Z,13.30
2023-05-05T03:30:42.904Z,13.40
2023-05-05T03:33:11.359Z,13.40
2023-05-05T03:35:38.258Z,13.40
2023-05-05T03:38:05.106Z,13.50
2023-05-05T03:40:43.746Z,13.50
2023-05-05T03:43:14.345Z,13.50
2023-05-05T03:45:43.246Z,13.50
2023-05-05T03:48:10.191Z,13.50
2023-05-05T03:50:37.697Z,13.50
2023-05-05T03:53:04.649Z,13.50
2023-05-05T03:55:31.538Z,13.40
2023-05-05T03:57:58.406Z,13.40
2023-05-05T04:00:25.327Z,13.40
2023-05-05T04:02:52.236Z,13.30
2023-05-05T04:05:19.976Z,13.30
2023-05-05T04:07:46.801Z,13.30
2023-05-05T04:10:13.692Z,13.30
2023-05-05T04:12:40.609Z,13.40
2023-05-05T04:15:09.004Z,13.30
2023-05-05T04:17:36.084Z,13.40
2023-05-05T04:20:03.078Z,13.40
2023-05-05T04:22:29.938Z,13.40
2023-05-05T04:24:56.912Z,13.40
2023-05-05T04:27:26.193Z,13.50
2023-05-05T04:29:54.107Z,13.50
2023-05-05T04:32:21.026Z,13.50
2023-05-05T04:34:48.003Z,13.60
2023-05-05T04:37:14.866Z,13.60
2023-05-05T04:39:41.721Z,13.70
2023-05-05T04:42:09.072Z,13.70
2023-05-05T04:44:36.022Z,13.70
2023-05-05T04:47:03.135Z,13.90
2023-05-05T04:49:30.427Z,13.90
2023-05-05T04:51:57.322Z,13.90
2023-05-05T04:54:24.260Z,13.90
2023-05-05T04:56:51.224Z,13.90
2023-05-05T04:59:18.189Z,13.90
2023-05-05T05:01:45.287Z,14.00
2023-05-05T05:04:12.881Z,14.00
2023-05-05T05:06:39.716Z,14.00
2023-05-05T05:09:06.635Z,14.00
2023-05-05T05:11:33.473Z,14.10
2023-05-05T05:14:00.301Z,14.10
2023-05-05T05:16:27.281Z,14.10
2023-05-05T05:18:54.827Z,14.10
2023-05-05T05:21:21.727Z,14.20
2023-05-05T05:23:48.577Z,14.20
2023-05-05T05:26:16.743Z,14.20
2023-05-05T05:28:43.627Z,14.20
2023-05-05T05:31:10.466Z,14.10
2023-05-05T05:33:38.411Z,14.20
2023-05-05T05:36:06.420Z,14.20
2023-05-05T05:38:33.386Z,14.30
2023-05-05T05:41:00.364Z,14.40
2023-05-05T05:43:27.210Z,14.30
2023-05-05T05:45:54.215Z,14.30
2023-05-05T05:48:22.249Z,14.30
2023-05-05T05:50:49.112Z,14.30
2023-05-05T05:53:16.162Z,14.30
2023-05-05T05:55:43.029Z,14.40
2023-05-05T05:58:09.860Z,14.30
2023-05-05T06:00:37.754Z,14.30
2023-05-05T06:03:04.681Z,14.30
2023-05-05T06:05:32.788Z,14.30
2023-05-05T06:07:59.654Z,14.40
2023-05-05T06:10:28.373Z,14.50
2023-05-05T06:12:55.666Z,14.50
2023-05-05T06:15:22.711Z,14.50
2023-05-05T06:17:49.595Z,14.60
2023-05-05T06:20:16.649Z,14.60
2023-05-05T06:22:44.492Z,14.70
2023-05-05T06:25:11.746Z,14.80
2023-05-05T06:27:38.634Z,14.80
2023-05-05T06:30:06.961Z,14.80
2023-05-05T06:32:34.101Z,14.90
2023-05-05T06:35:01.024Z,14.80
2023-05-05T06:37:27.868Z,15.00
2023-05-05T06:39:54.764Z,15.00
2023-05-05T06:42:21.590Z,15.00
2023-05-05T06:44:48.488Z,15.10
2023-05-05T06:47:15.933Z,15.30
2023-05-05T06:49:43.779Z,15.30
2023-05-05T06:52:10.633Z,15.40
2023-05-05T06:54:37.506Z,15.50
2023-05-05T06:57:05.372Z,15.60
2023-05-05T06:59:32.546Z,15.50
2023-05-05T07:01:59.610Z,15.60
2023-05-05T07:04:26.951Z,15.60
2023-05-05T07:06:55.284Z,15.60
2023-05-05T07:09:22.170Z,15.60
2023-05-05T07:11:49.060Z,15.60
2023-05-05T07:14:15.958Z,15.60
2023-05-05T07:16:42.901Z,15.60
2023-05-05T07:19:09.794Z,15.60
2023-05-05T07:21:36.948Z,15.70
2023-05-05T07:24:04.214Z,15.70
2023-05-05T07:26:31.206Z,15.80
2023-05-05T07:28:58.958Z,16.00
2023-05-05T07:31:26.630Z,16.10
2023-05-05T07:33:53.763Z,16.20
2023-05-05T07:36:27.984Z,16.20
2023-05-05T07:38:54.919Z,16.20
2023-05-05T07:41:21.923Z,16.30
2023-05-05T07:43:48.798Z,16.40
2023-05-05T07:46:15.711Z,16.30
2023-05-05T07:48:42.746Z,16.30
2023-05-05T07:51:10.117Z,16.40
2023-05-05T07:53:37.381Z,16.50
2023-05-05T07:56:04.294Z,16.60
2023-05-05T07:58:31.203Z,16.70
2023-05-05T08:00:58.064Z,16.70
2023-05-05T08:03:25.255Z,16.70
2023-05-05T08:05:54.141Z,16.70
2023-05-05T08:08:24.802Z,16.80
2023-05-05T08:10:53.195Z,16.90
2023-05-05T08:13:20.494Z,16.90
2023-05-05T08:15:47.625Z,17.00
2023-05-05T08:18:14.702Z,17.00
2023-05-05T08:20:41.749Z,17.10
2023-05-05T08:23:08.648Z,17.10
2023-05-05T08:25:35.528Z,17.20
2023-05-05T08:28:02.475Z,17.30
2023-05-05T08:30:29.519Z,17.30
2023-05-05T08:32:56.574Z,17.20
2023-05-05T08:35:24.243Z,17.20
2023-05-05T08:37:51.850Z,17.00
2023-05-05T08:40:20.894Z,17.00
2023-05-05T08:42:48.204Z,16.90
2023-05-05T08:45:15.944Z,16.80
2023-05-05T08:47:43.544Z,16.70
2023-05-05T08:50:11.210Z,16.60
2023-05-05T08:52:44.129Z,16.70
2023-05-05T08:55:26.546Z,16.60
2023-05-05T08:57:56.513Z,16.70
2023-05-05T09:00:23.915Z,16.70
2023-05-05T09:02:50.878Z,16.80
2023-05-05T09:05:18.278Z,16.80
2023-05-05T09:07:45.346Z,16.90
2023-05-05T09:10:12.577Z,17.00
2023-05-05T09:12:42.173Z,17.10
2023-05-05T09:15:10.657Z,17.30
2023-05-05T09:17:38.354Z,17.40
2023-05-05T09:20:09.286Z,17.30
2023-05-05T09:22:40.603Z,17.20
2023-05-05T09:25:14.730Z,17.20
2023-05-05T09:27:43.360Z,17.10
2023-05-05T09:30:11.687Z,17.20
2023-05-05T09:32:46.048Z,17.20
2023-05-05T09:35:13.047Z,17.20
2023-05-05T09:37:39.911Z,17.40
2023-05-05T09:40:09.191Z,17.50
2023-05-05T09:42:37.210Z,17.50
2023-05-05T09:45:17.168Z,17.50
2023-05-05T09:47:45.724Z,17.50
2023-05-05T09:50:16.324Z,17.40
2023-05-05T09:52:43.362Z,17.30
2023-05-05T09:55:19.374Z,17.30
2023-05-05T09:57:47.497Z,17.30
2023-05-05T10:00:14.990Z,17.00
2023-05-05T10:02:42.094Z,16.80
2023-05-05T10:05:09.326Z,16.70
2023-05-05T10:07:37.007Z,16.50
2023-05-05T10:10:05.141Z,16.40
2023-05-05T10:12:32.662Z,16.40
2023-05-05T10:15:02.374Z,16.40
2023-05-05T10:20:18.847Z,16.60
2023-05-05T10:22:55.154Z,16.70
2023-05-05T10:25:31.684Z,16.90
2023-05-05T10:28:00.249Z,17.00
2023-05-05T10:30:30.114Z,17.10
2023-05-05T10:33:31.664Z,17.20
2023-05-05T10:36:01.923Z,17.00
2023-05-05T10:38:30.806Z,17.10
2023-05-05T10:40:59.273Z,17.10
2023-05-05T10:43:26.829Z,17.20
2023-05-05T10:45:53.948Z,17.20
2023-05-05T10:48:45.078Z,17.20
2023-05-05T10:51:39.838Z,16.90
2023-05-05T10:54:16.422Z,16.90
2023-05-05T10:56:43.489Z,16.70
2023-05-05T10:59:38.513Z,16.80
2023-05-05T11:02:24.134Z,16.70
2023-05-05T11:05:23.714Z,16.60
2023-05-05T11:07:51.638Z,16.50
2023-05-05T11:10:20.802Z,16.40
2023-05-05T11:13:03.237Z,16.40
2023-05-05T11:15:30.385Z,16.30
2023-05-05T11:17:58.181Z,16.20
2023-05-05T11:20:39.606Z,16.30
2023-05-05T11:23:06.653Z,16.40
2023-05-05T11:25:37.408Z,16.40
2023-05-05T11:28:21.266Z,16.50
2023-05-05T11:30:58.813Z,16.60
2023-05-05T11:33:32.726Z,16.80
2023-05-05T11:36:07.146Z,16.80
2023-05-05T11:39:05.557Z,16.90
2023-05-05T11:41:32.540Z,16.80
2023-05-05T11:44:29.654Z,16.70
2023-05-05T11:47:02.853Z,16.70
2023-05-05T11:49:32.900Z,16.60
2023-05-05T11:52:12.719Z,16.50
2023-05-05T11:54:41.562Z,16.40
2023-05-05T11:57:09.105Z,16.80
2023-05-05T11:59:37.517Z,17.10
2023-05-05T12:02:04.714Z,17.20
2023-05-05T12:04:32.080Z,17.40
2023-05-05T12:06:59.134Z,17.60
2023-05-05T12:09:26.688Z,17.70
2023-05-05T12:11:57.604Z,17.90
2023-05-05T12:14:25.092Z,18.20
2023-05-05T12:16:58.082Z,18.20
2023-05-05T12:19:30.131Z,18.40
2023-05-05T12:21:57.214Z,18.40
2023-05-05T12:24:24.133Z,18.40
2023-05-05T12:26:51.770Z,18.50
2023-05-05T12:29:26.219Z,18.70
2023-05-05T12:31:53.154Z,19.10
2023-05-05T12:34:21.354Z,19.20
2023-05-05T12:36:48.265Z,19.50
2023-05-05T12:39:15.289Z,19.70
2023-05-05T12:41:42.277Z,19.20
2023-05-05T12:44:09.303Z,19.10
2023-05-05T12:46:49.174Z,19.30
2023-05-05T12:49:16.952Z,19.80
2023-05-05T12:51:55.093Z,19.80
2023-05-05T12:54:23.875Z,19.70
2023-05-05T12:56:51.315Z,19.60
2023-05-05T12:59:21.271Z,19.40
2023-05-05T13:01:54.471Z,18.70
2023-05-05T13:04:23.083Z,18.10
2023-05-05T13:07:11.689Z,17.90
2023-05-05T13:09:38.715Z,17.50
2023-05-05T13:12:07.180Z,17.10
2023-05-05T13:14:36.998Z,17.00
2023-05-05T13:17:03.964Z,16.80
2023-05-05T13:19:30.963Z,17.00
2023-05-05T13:21:58.421Z,16.80
2023-05-05T13:24:37.834Z,16.60
2023-05-05T13:27:12.696Z,16.50
2023-05-05T13:29:41.733Z,16.40
2023-05-05T13:32:08.667Z,16.30
2023-05-05T13:34:35.742Z,16.20
2023-05-05T13:37:02.621Z,16.00
2023-05-05T13:39:29.450Z,15.90
2023-05-05T13:41:56.353Z,16.10
2023-05-05T13:44:23.214Z,16.30
2023-05-05T13:46:50.128Z,16.50
2023-05-05T13:49:17.325Z,16.40
2023-05-05T13:51:45.200Z,16.20
2023-05-05T13:54:12.122Z,16.10
2023-05-05T13:56:39.121Z,16.00
2023-05-05T13:59:05.990Z,16.00
2023-05-05T14:01:32.947Z,16.10
2023-05-05T14:04:00.974Z,16.20
2023-05-05T14:06:29.781Z,16.30
2023-05-05T14:08:56.705Z,16.50
2023-05-05T14:11:23.572Z,16.70
2023-05-05T14:13:50.459Z,16.90
2023-05-05T14:16:17.396Z,17.20
2023-05-05T14:18:44.377Z,17.60
2023-05-05T14:21:11.306Z,18.10
2023-05-05T14:23:38.191Z,18.40
2023-05-05T14:26:05.140Z,18.40
2023-05-05T14:28:32.026Z,18.40
2023-05-05T14:30:58.869Z,18.50
2023-05-05T14:33:25.905Z,18.70
2023-05-05T14:35:52.778Z,18.90
2023-05-05T14:38:19.768Z,19.00
2023-05-05T14:40:46.695Z,19.20
2023-05-05T14:43:13.573Z,19.40
2023-05-05T14:45:40.461Z,19.40
2023-05-05T14:48:07.400Z,19.60
2023-05-05T14:50:34.272Z,19.20
2023-05-05T14:53:01.205Z,18.50
2023-05-05T14:55:28.130Z,18.30
2023-05-05T14:57:54.987Z,18.10
2023-05-05T15:00:21.855Z,17.80
2023-05-05T15:02:48.852Z,17.70
2023-05-05T15:05:16.015Z,17.70
2023-05-05T15:07:43.047Z,17.80
2023-05-05T15:10:10.398Z,17.90
2023-05-05T15:12:37.346Z,18.00
2023-05-05T15:15:05.748Z,18.20
2023-05-05T15:17:32.771Z,18.00
2023-05-05T15:19:59.673Z,17.70
2023-05-05T15:22:26.663Z,17.70
2023-05-05T15:24:53.510Z,17.90
2023-05-05T15:27:20.348Z,17.90
2023-05-05T15:29:47.296Z,18.10
2023-05-05T15:32:14.272Z,18.10
2023-05-05T15:34:41.289Z,17.90
2023-05-05T15:37:08.234Z,18.00
2023-05-05T15:39:35.090Z,18.00
2023-05-05T15:42:05.038Z,18.00
2023-05-05T15:44:32.059Z,17.80
2023-05-05T15:46:59.005Z,17.70
2023-05-05T15:49:27.959Z,17.90
2023-05-05T15:51:54.871Z,18.20
2023-05-05T15:54:21.751Z,18.30
2023-05-05T15:56:49.588Z,18.60
2023-05-05T15:59:16.455Z,18.70
2023-05-05T16:01:43.415Z,18.70
2023-05-05T16:04:10.400Z,18.60
2023-05-05T16:06:37.238Z,18.30
2023-05-05T16:09:04.583Z,18.10
2023-05-05T16:11:31.428Z,18.20
2023-05-05T16:13:59.965Z,18.00
2023-05-05T16:16:27.183Z,18.30
2023-05-05T16:18:54.096Z,18.60
2023-05-05T16:21:20.957Z,19.20
2023-05-05T16:23:47.919Z,19.20
2023-05-05T16:26:14.750Z,19.10
2023-05-05T16:28:41.661Z,19.60
2023-05-05T16:31:10.773Z,20.10
2023-05-05T16:33:43.561Z,20.70
2023-05-05T16:36:11.504Z,21.30
2023-05-05T16:38:39.047Z,21.90
2023-05-05T16:41:07.245Z,22.60
2023-05-05T16:43:34.849Z,22.80
2023-05-05T16:46:03.858Z,22.50
2023-05-05T16:48:30.706Z,22.30
2023-05-05T16:50:57.911Z,21.80
2023-05-05T16:53:25.091Z,20.20
2023-05-05T16:55:52.603Z,19.20
2023-05-05T16:58:20.387Z,18.40
2023-05-05T17:00:49.261Z,18.60
2023-05-05T17:03:19.225Z,19.30
2023-05-05T17:05:49.667Z,20.30
2023-05-05T17:08:16.961Z,21.40
2023-05-05T17:10:44.588Z,22.10
2023-05-05T17:13:13.226Z,21.90
2023-05-05T17:15:40.588Z,21.00
2023-05-05T17:18:07.972Z,20.40
2023-05-05T17:20:34.972Z,20.10
2023-05-05T17:23:05.209Z,19.90
2023-05-05T17:25:33.210Z,20.00
2023-05-05T17:28:00.130Z,20.80
2023-05-05T17:30:27.022Z,20.90
2023-05-05T17:32:54.051Z,20.30
2023-05-05T17:35:21.329Z,19.60
2023-05-05T17:37:48.185Z,19.00
2023-05-05T17:40:15.053Z,18.50
2023-05-05T17:42:41.952Z,18.30
2023-05-05T17:45:10.643Z,18.10
2023-05-05T17:47:37.778Z,17.90
2023-05-05T17:50:07.121Z,17.70
2023-05-05T17:52:33.995Z,17.60
2023-05-05T17:55:00.923Z,17.40
2023-05-05T17:57:28.683Z,17.40
2023-05-05T17:59:55.653Z,17.40
2023-05-05T18:02:23.916Z,17.40
2023-05-05T18:04:50.984Z,17.30
2023-05-05T18:07:17.891Z,17.30
2023-05-05T18:09:44.844Z,17.10
2023-05-05T18:12:11.855Z,16.90
2023-05-05T18:14:38.693Z,16.90
2023-05-05T18:17:05.581Z,16.90
2023-05-05T18:19:33.671Z,16.80
2023-05-05T18:22:00.597Z,16.70
2023-05-05T18:24:28.525Z,16.80
2023-05-05T18:26:55.534Z,16.70
2023-05-05T18:29:22.567Z,16.70
2023-05-05T18:31:53.055Z,16.70
2023-05-05T18:34:21.145Z,16.60
2023-05-05T18:36:51.051Z,16.60
2023-05-05T18:39:17.992Z,16.50
2023-05-05T18:41:44.913Z,16.50
2023-05-05T18:44:11.952Z,16.40
2023-05-05T18:46:38.899Z,16.30
2023-05-05T18:49:05.870Z,16.30
2023-05-05T18:51:32.791Z,16.20
2023-05-05T18:54:00.873Z,16.10
2023-05-05T18:56:27.900Z,16.00
2023-05-05T18:58:54.820Z,15.80
2023-05-05T19:01:24.855Z,15.80
2023-05-05T19:03:51.788Z,15.60
2023-05-05T19:06:18.726Z,15.50
2023-05-05T19:08:46.023Z,15.40
2023-05-05T19:11:14.801Z,15.40
2023-05-05T19:13:41.824Z,15.40
2023-05-05T19:16:08.822Z,15.30
2023-05-05T19:18:35.749Z,15.30
2023-05-05T19:21:02.758Z,15.20
2023-05-05T19:23:29.726Z,15.20
2023-05-05T19:25:56.554Z,15.10
2023-05-05T19:28:23.563Z,15.10
2023-05-05T19:30:50.404Z,15.00
2023-05-05T19:33:17.364Z,15.00
2023-05-05T19:35:44.464Z,14.90
2023-05-05T19:38:12.011Z,14.90
2023-05-05T19:40:39.288Z,14.90
2023-05-05T19:43:07.409Z,14.80
2023-05-05T19:45:34.286Z,14.80
2023-05-05T19:48:01.756Z,14.70
2023-05-05T19:50:30.352Z,14.70
2023-05-05T19:52:57.831Z,14.60
2023-05-05T19:55:24.892Z,14.60
2023-05-05T19:57:51.778Z,14.50
2023-05-05T20:00:19.678Z,14.50
2023-05-05T20:02:47.426Z,14.50
2023-05-05T20:05:16.396Z,14.50
2023-05-05T20:07:44.326Z,14.40
2023-05-05T20:10:13.369Z,14.40
2023-05-05T20:12:48.458Z,14.40
2023-05-05T20:15:19.040Z,14.40
2023-05-05T20:17:49.243Z,14.40
2023-05-05T20:20:21.386Z,14.40
2023-05-05T20:22:48.472Z,14.30
2023-05-05T20:25:16.402Z,14.30
2023-05-05T20:27:43.751Z,14.30
2023-05-05T20:30:12.123Z,14.30
2023-05-05T20:32:39.142Z,14.30
2023-05-05T20:35:07.666Z,14.30
2023-05-05T20:37:34.597Z,14.30
2023-05-05T20:40:02.557Z,14.30
2023-05-05T20:42:29.894Z,14.30
2023-05-05T20:44:57.044Z,14.30
2023-05-05T20:47:24.385Z,14.40
2023-05-05T20:49:53.378Z,14.40
2023-05-05T20:52:21.257Z,14.40
2023-05-05T20:54:49.196Z,14.40
2023-05-05T20:57:16.016Z,14.30
2023-05-05T20:59:42.916Z,14.30
2023-05-05T21:02:09.793Z,14.30
2023-05-05T21:04:36.697Z,14.30
2023-05-05T21:07:03.739Z,14.20
2023-05-05T21:09:31.521Z,14.20
2023-05-05T21:11:58.530Z,14.20
2023-05-05T21:14:25.477Z,14.10
2023-05-05T21:16:52.352Z,14.10
2023-05-05T21:19:19.342Z,14.10
2023-05-05T21:21:46.286Z,14.00
2023-05-05T21:24:13.261Z,14.00
2023-05-05T21:26:45.951Z,13.90
2023-05-05T21:29:12.873Z,13.90
2023-05-05T21:31:39.774Z,13.80
2023-05-05T21:34:06.770Z,13.80
2023-05-05T21:36:34.022Z,13.80
2023-05-05T21:39:01.184Z,13.70
2023-05-05T21:41:28.323Z,13.70
2023-05-05T21:43:56.226Z,13.70
2023-05-05T21:46:23.285Z,13.70
2023-05-05T21:48:50.339Z,13.60
2023-05-05T21:51:17.482Z,13.60
2023-05-05T21:53:44.449Z,13.50
2023-05-05T21:56:11.474Z,13.50
2023-05-05T21:58:38.399Z,13.40
2023-05-05T22:01:05.525Z,13.40
2023-05-05T22:03:34.330Z,13.50
2023-05-05T22:06:01.393Z,13.50
2023-05-05T22:08:28.371Z,13.50
2023-05-05T22:10:55.249Z,13.40
2023-05-05T22:13:22.235Z,13.30
2023-05-05T22:15:49.320Z,13.30
2023-05-05T22:18:16.296Z,13.30
2023-05-05T22:20:43.989Z,13.20
2023-05-05T22:23:10.873Z,13.20
2023-05-05T22:25:37.796Z,13.10
2023-05-05T22:28:05.034Z,13.10
2023-05-05T22:30:31.895Z,13.10
2023-05-05T22:32:58.855Z,13.10
2023-05-05T22:35:25.774Z,13.10
2023-05-05T22:37:52.719Z,13.10
2023-05-05T22:40:19.614Z,13.10
2023-05-05T22:42:46.489Z,13.00
2023-05-05T22:45:13.545Z,13.00
2023-05-05T22:47:40.779Z,13.00
2023-05-05T22:50:08.397Z,13.00
2023-05-05T22:52:35.506Z,13.00
2023-05-05T22:55:02.598Z,12.90
2023-05-05T22:57:30.523Z,12.90
2023-05-05T22:59:57.527Z,12.90
2023-05-05T23:02:26.764Z,12.90
2023-05-05T23:04:53.828Z,12.90
2023-05-05T23:07:20.877Z,12.80
2023-05-05T23:09:47.968Z,12.80
2023-05-05T23:12:15.922Z,12.80
2023-05-05T23:14:44.012Z,12.70
2023-05-05T23:17:10.900Z,12.70
2023-05-05T23:19:37.743Z,12.70
2023-05-05T23:22:04.784Z,12.60
2023-05-05T23:24:31.727Z,12.60
2023-05-05T23:26:59.670Z,12.60
2023-05-05T23:29:27.629Z,12.60
2023-05-05T23:31:54.547Z,12.50
2023-05-05T23:34:21.419Z,12.50
2023-05-05T23:36:48.338Z,12.50
2023-05-05T23:39:15.203Z,12.50
2023-05-05T23:41:44.408Z,12.40
2023-05-05T23:44:11.282Z,12.40
2023-05-05T23:46:38.288Z,12.30
2023-05-05T23:49:05.180Z,12.30
2023-05-05T23:51:32.178Z,12.20
2023-05-05T23:53:59.115Z,12.20
2023-05-05T23:56:26.384Z,12.20
2023-05-05T23:58:54.303Z,12.10
